Time;durP1;ratioP1;P1;durP2;ratioP2;P2;SDS_P1;SDS_P2;PMS_P1;PMS_P2;Temp;Humidity;BMP_temperature;BMP_pressure;BME280_temperature;BME280_humidity;BME280_pressure;Samples;Min_cycle;Max_cycle;Signal;HPM_P1;HPM_P2
2022/01/18 00:00:04;;;;;;;22.90;3.90;;;;;;;-1.59;86.55;100470.58;103622;1300;24508;-25
2022/01/18 00:02:30;;;;;;;7.10;3.20;;;;;;;-1.41;85.79;100472.09;103620;1300;22942;-26
2022/01/18 00:04:56;;;;;;;9.30;3.60;;;;;;;-1.57;86.38;100475.69;103616;1300;24176;-31
2022/01/18 00:07:22;;;;;;;7.60;2.40;;;;;;;-1.80;87.40;100480.23;103579;1300;22508;-30
2022/01/18 00:09:49;;;;;;;6.20;3.00;;;;;;;-1.84;87.97;100479.41;103601;1297;24648;-24
2022/01/18 00:12:42;;;;;;;13.60;4.70;;;;;;;-1.65;87.41;100474.80;103659;1299;22711;-29
2022/01/18 00:17:41;;;;;;;9.70;2.40;;;;;;;-1.83;88.79;100484.98;103572;1300;22713;-25
2022/01/18 00:20:10;;;;;;;6.40;1.90;;;;;;;-1.88;88.90;100487.37;103583;1300;24557;-30
2022/01/18 00:22:36;;;;;;;14.00;4.00;;;;;;;-1.82;88.88;100485.45;103579;1301;24334;-30
2022/01/18 00:25:02;;;;;;;12.60;1.60;;;;;;;-1.83;89.10;100488.52;103546;1301;24306;-27
2022/01/18 00:27:29;;;;;;;24.80;4.30;;;;;;;-1.67;88.64;100493.84;103616;1301;24302;-25
2022/01/18 00:30:14;;;;;;;13.90;1.40;;;;;;;-1.51;87.82;100489.60;103502;1302;24427;-29
2022/01/18 00:32:54;;;;;;;15.50;3.00;;;;;;;-1.66;88.52;100487.30;103483;1301;22601;-25
2022/01/18 00:35:20;;;;;;;8.40;3.40;;;;;;;-1.62;87.84;100481.12;103506;1301;24176;-27
2022/01/18 00:40:15;;;;;;;3.20;0.90;;;;;;;-1.77;89.01;100491.30;103549;1302;23148;-29
2022/01/18 00:42:42;;;;;;;6.10;1.90;;;;;;;-1.85;89.52;100492.86;103485;1302;24237;-25
2022/01/18 00:45:08;;;;;;;4.90;1.60;;;;;;;-1.83;89.51;100498.89;103544;1300;24357;-29
2022/01/18 00:47:34;;;;;;;3.60;1.30;;;;;;;-1.91;89.93;100494.75;103532;1302;24552;-28
2022/01/18 00:50:01;;;;;;;8.60;1.70;;;;;;;-2.03;90.13;100502.29;103524;1302;24263;-31
2022/01/18 00:52:29;;;;;;;9.30;1.10;;;;;;;-1.98;90.53;100503.42;103478;1302;24351;-30
2022/01/18 00:54:55;;;;;;;5.80;1.50;;;;;;;-1.77;89.78;100512.38;103595;1302;24176;-27
2022/01/18 00:57:21;;;;;;;6.40;2.20;;;;;;;-1.90;90.13;100512.63;103573;1300;24230;-26
2022/01/18 00:59:47;;;;;;;4.90;1.30;;;;;;;-1.86;90.04;100513.75;103601;1302;24188;-28
2022/01/18 01:02:14;;;;;;;7.00;1.60;;;;;;;-1.87;90.09;100525.94;103498;1301;24259;-25
2022/01/18 01:04:47;;;;;;;7.50;1.60;;;;;;;-1.88;90.00;100522.27;103443;1302;24267;-25
2022/01/18 01:07:14;;;;;;;4.80;1.80;;;;;;;-1.89;90.21;100525.70;103507;1302;23844;-25
2022/01/18 01:09:39;;;;;;;9.30;2.60;;;;;;;-1.80;90.11;100528.52;103525;1301;24146;-24
2022/01/18 01:12:06;;;;;;;8.50;3.00;;;;;;;-1.82;89.96;100530.21;103538;1302;24178;-25
2022/01/18 01:14:33;;;;;;;10.10;1.70;;;;;;;-1.86;89.70;100530.25;103544;1302;24261;-25
2022/01/18 01:17:10;;;;;;;7.90;1.40;;;;;;;-1.79;89.70;100535.52;103588;1302;24316;-24
2022/01/18 01:34:45;;;;;;;18.20;1.60;;;;;;;-1.83;89.66;100553.82;103557;1300;24316;-23
2022/01/18 01:41:42;;;;;;;7.90;1.40;;;;;;;-1.79;89.61;100559.73;103497;1300;24331;-29
2022/01/18 01:44:56;;;;;;;8.00;1.80;;;;;;;-1.77;89.49;100550.13;103512;1300;24218;-29
2022/01/18 01:47:32;;;;;;;9.70;2.10;;;;;;;-1.68;88.98;100546.06;103535;1302;24361;-30
2022/01/18 01:49:58;;;;;;;10.00;1.40;;;;;;;-1.86;89.47;100556.41;103510;1300;24419;-25
2022/01/18 01:52:24;;;;;;;10.40;1.30;;;;;;;-1.77;89.63;100557.48;103479;1300;24256;-24
2022/01/18 01:54:50;;;;;;;8.10;1.00;;;;;;;-1.69;89.37;100554.60;103564;1300;24170;-26
2022/01/18 01:57:16;;;;;;;4.70;1.60;;;;;;;-1.83;89.29;100553.99;103611;1300;24449;-29
2022/01/18 01:59:42;;;;;;;14.00;2.80;;;;;;;-1.73;89.08;100562.85;103536;1300;22706;-28
2022/01/18 02:02:08;;;;;;;19.00;2.00;;;;;;;-1.65;88.45;100566.23;103523;1302;24196;-31
2022/01/18 02:04:34;;;;;;;9.30;2.80;;;;;;;-1.80;89.27;100570.69;103549;1300;24372;-25
2022/01/18 02:06:59;;;;;;;6.60;1.60;;;;;;;-1.77;89.44;100572.95;103600;1300;24331;-29
2022/01/18 02:09:25;;;;;;;1.90;1.10;;;;;;;-1.57;88.62;100567.06;103519;1302;24224;-25
2022/01/18 02:11:55;;;;;;;4.50;0.80;;;;;;;-1.54;87.93;100561.92;103610;1300;24348;-30
2022/01/18 02:14:22;;;;;;;4.50;2.60;;;;;;;-1.62;88.34;100559.63;103471;1302;24304;-30
2022/01/18 02:21:48;;;;;;;4.00;1.60;;;;;;;-1.51;87.54;100559.34;103544;1302;24725;-29
2022/01/18 02:24:14;;;;;;;13.00;4.20;;;;;;;-1.75;88.53;100559.98;103585;1300;24228;-29
2022/01/18 02:26:40;;;;;;;8.10;3.60;;;;;;;-1.56;88.01;100558.73;103503;1302;24250;-24
2022/01/18 02:29:07;;;;;;;5.70;1.90;;;;;;;-1.80;88.70;100557.48;103535;1300;24322;-29
2022/01/18 02:31:33;;;;;;;17.60;2.20;;;;;;;-1.88;89.38;100564.45;103586;1300;25394;-30
2022/01/18 02:34:03;;;;;;;17.90;1.50;;;;;;;-2.09;90.27;100572.48;103632;1300;24186;-25
2022/01/18 02:36:30;;;;;;;4.20;1.20;;;;;;;-2.15;90.52;100578.27;103515;1301;22636;-28
2022/01/18 02:38:55;;;;;;;7.70;1.80;;;;;;;-2.22;91.17;100584.27;103559;1300;24186;-29
2022/01/18 02:41:25;;;;;;;4.90;0.50;;;;;;;-2.16;91.08;100585.20;103610;1302;24253;-24
2022/01/18 02:43:55;;;;;;;6.00;2.10;;;;;;;-2.20;90.81;100579.95;103531;1300;24260;-25
2022/01/18 02:46:21;;;;;;;11.40;1.40;;;;;;;-2.22;91.49;100583.05;103546;1300;22809;-30
2022/01/18 02:48:47;;;;;;;13.30;1.30;;;;;;;-2.05;90.71;100589.79;103486;1300;24343;-30
2022/01/18 02:51:13;;;;;;;13.80;1.70;;;;;;;-2.19;91.50;100592.92;103558;1300;24167;-26
2022/01/18 02:53:46;;;;;;;7.20;2.30;;;;;;;-2.06;91.04;100598.46;103583;1300;24250;-25
2022/01/18 02:56:12;;;;;;;11.80;1.90;;;;;;;-2.01;90.66;100596.45;103563;1300;22510;-30
2022/01/18 02:58:38;;;;;;;15.80;2.00;;;;;;;-2.01;90.54;100588.56;103538;1302;24223;-25
2022/01/18 03:03:31;;;;;;;17.80;1.90;;;;;;;-1.87;90.00;100590.55;103626;1300;24268;-25
2022/01/18 03:05:57;;;;;;;9.80;1.50;;;;;;;-2.06;90.44;100593.23;103594;1302;24407;-25
2022/01/18 03:08:24;;;;;;;4.90;1.20;;;;;;;-1.96;90.39;100596.64;103577;1300;24406;-26
2022/01/18 03:10:49;;;;;;;10.20;1.10;;;;;;;-2.16;91.13;100587.64;103535;1300;24334;-25
2022/01/18 03:13:17;;;;;;;21.90;2.20;;;;;;;-1.97;90.35;100590.92;103538;1300;24212;-25
2022/01/18 03:15:43;;;;;;;8.40;2.30;;;;;;;-1.91;89.89;100590.59;103549;1302;22783;-25
2022/01/18 03:18:08;;;;;;;4.10;1.80;;;;;;;-1.99;90.05;100596.36;103569;1300;24232;-25
2022/01/18 03:20:35;;;;;;;12.80;1.70;;;;;;;-2.18;90.99;100602.65;103619;1300;22881;-29
2022/01/18 03:23:01;;;;;;;6.20;2.70;;;;;;;-2.15;90.94;100611.25;103538;1301;24303;-25
2022/01/18 03:30:23;;;;;;;4.40;0.70;;;;;;;-1.97;89.97;100610.43;103524;1300;24307;-30
2022/01/18 03:32:49;;;;;;;6.00;1.30;;;;;;;-1.92;90.05;100607.36;103551;1300;24230;-25
2022/01/18 03:35:15;;;;;;;3.80;2.00;;;;;;;-2.12;90.72;100612.86;103598;1302;24209;-25
2022/01/18 03:37:42;;;;;;;8.60;2.50;;;;;;;-2.10;90.73;100619.91;103511;1300;24353;-29
2022/01/18 03:40:09;;;;;;;2.70;0.60;;;;;;;-2.08;90.87;100620.19;103588;1300;24225;-29
2022/01/18 03:42:41;;;;;;;10.40;2.20;;;;;;;-2.30;91.21;100631.92;103593;1300;24412;-25
2022/01/18 03:45:09;;;;;;;6.10;1.50;;;;;;;-2.13;91.39;100632.38;103509;1300;22743;-29
2022/01/18 03:47:35;;;;;;;3.60;0.90;;;;;;;-2.14;91.14;100632.60;103545;1300;24309;-25
2022/01/18 03:50:02;;;;;;;13.00;2.90;;;;;;;-2.04;90.99;100635.04;103530;1302;24441;-25
2022/01/18 03:52:28;;;;;;;3.70;1.20;;;;;;;-1.99;90.45;100640.19;103588;1302;24194;-29
2022/01/18 03:54:54;;;;;;;7.50;1.60;;;;;;;-2.09;90.95;100639.38;103446;1301;24211;-25
2022/01/18 03:57:20;;;;;;;5.90;1.70;;;;;;;-2.22;91.22;100644.12;103489;1302;24258;-30
2022/01/18 03:59:46;;;;;;;10.40;1.80;;;;;;;-2.40;92.14;100643.02;103508;1302;24308;-26
2022/01/18 04:02:13;;;;;;;9.80;1.10;;;;;;;-2.27;92.04;100648.75;103455;1300;24221;-25
2022/01/18 04:04:39;;;;;;;6.90;1.10;;;;;;;-2.41;92.76;100643.73;103480;1300;24272;-26
2022/01/18 04:07:05;;;;;;;5.00;1.30;;;;;;;-2.21;91.67;100645.09;103500;1300;24183;-26
2022/01/18 04:09:31;;;;;;;6.60;2.30;;;;;;;-2.45;92.85;100648.53;103131;1300;660284;-26
2022/01/18 04:11:57;;;;;;;23.80;1.60;;;;;;;-2.34;92.74;100649.14;103551;1300;24297;-29
2022/01/18 04:14:24;;;;;;;19.10;2.50;;;;;;;-2.47;92.97;100663.70;103521;1302;24230;-25
2022/01/18 04:25:49;;;;;;;12.10;1.80;;;;;;;-2.44;93.20;100663.00;103517;1300;24222;-25
2022/01/18 04:27:05;;;;;;;3.70;1.00;;;;;;;-2.37;92.99;100659.98;103509;1302;22507;-25
2022/01/18 04:29:31;;;;;;;8.70;2.30;;;;;;;-2.41;93.44;100663.58;103549;1300;22798;-25
2022/01/18 04:31:57;;;;;;;8.40;1.80;;;;;;;-2.28;93.09;100667.27;103487;1300;24201;-25
2022/01/18 04:34:23;;;;;;;7.40;1.10;;;;;;;-2.44;93.14;100678.65;103545;1300;24232;-25
2022/01/18 04:36:49;;;;;;;10.50;2.20;;;;;;;-2.42;93.46;100681.48;103529;1300;24284;-25
2022/01/18 04:39:15;;;;;;;6.60;1.50;;;;;;;-2.39;93.35;100676.96;103620;1300;23244;-30
2022/01/18 04:41:41;;;;;;;11.00;2.00;;;;;;;-2.31;93.02;100677.40;103601;1300;24228;-25
2022/01/18 04:48:23;;;;;;;10.60;3.10;;;;;;;-2.38;93.05;100679.70;103520;1302;24366;-29
2022/01/18 04:49:22;;;;;;;6.90;2.40;;;;;;;-2.48;93.83;100664.98;103534;1302;24177;-29
2022/01/18 04:51:48;;;;;;;8.20;2.10;;;;;;;-2.45;94.03;100668.67;103544;1300;24217;-24
2022/01/18 04:54:15;;;;;;;5.60;1.20;;;;;;;-2.52;93.93;100674.68;103598;1300;24215;-25
2022/01/18 04:59:08;;;;;;;10.70;1.60;;;;;;;-2.47;94.21;100686.31;103648;1300;24334;-31
2022/01/18 05:01:36;;;;;;;5.90;1.30;;;;;;;-2.50;94.12;100692.27;103550;1302;24220;-25
2022/01/18 05:04:02;;;;;;;5.00;1.60;;;;;;;-2.56;94.32;100688.41;103509;1300;24234;-25
2022/01/18 05:06:28;;;;;;;15.30;3.90;;;;;;;-2.56;94.75;100679.48;103559;1301;24174;-25
2022/01/18 05:08:54;;;;;;;13.10;3.90;;;;;;;-2.62;95.07;100683.25;103509;1302;24227;-26
2022/01/18 05:11:23;;;;;;;8.60;1.80;;;;;;;-2.54;94.87;100685.46;103627;1301;24289;-30
2022/01/18 05:19:10;;;;;;;6.40;2.80;;;;;;;-2.62;95.37;100698.17;103546;1300;24216;-32
2022/01/18 05:22:58;;;;;;;15.30;4.30;;;;;;;-2.65;95.42;100698.48;103509;1301;24321;-31
2022/01/18 05:24:23;;;;;;;9.30;2.10;;;;;;;-2.51;95.13;100697.95;103512;1302;24351;-31
2022/01/18 05:26:49;;;;;;;7.60;1.90;;;;;;;-2.56;95.13;100698.39;103571;1302;24162;-26
2022/01/18 05:29:15;;;;;;;2.80;1.00;;;;;;;-2.52;95.12;100702.05;103565;1302;24192;-32
2022/01/18 05:31:41;;;;;;;5.20;1.70;;;;;;;-2.54;95.09;100709.17;103549;1300;24447;-29
2022/01/18 05:34:07;;;;;;;4.00;1.00;;;;;;;-2.55;95.18;100718.84;103525;1300;24196;-31
2022/01/18 05:36:34;;;;;;;10.60;2.90;;;;;;;-2.33;94.66;100726.80;103514;1301;24233;-26
2022/01/18 05:39:00;;;;;;;9.70;2.80;;;;;;;-2.33;94.13;100733.51;103619;1300;24225;-29
2022/01/18 05:41:26;;;;;;;7.10;1.70;;;;;;;-2.51;94.71;100726.52;103531;1302;24197;-25
2022/01/18 05:43:53;;;;;;;15.30;1.20;;;;;;;-2.14;94.08;100728.97;103450;1302;24320;-29
2022/01/18 05:46:18;;;;;;;8.60;1.30;;;;;;;-2.22;93.42;100724.27;103584;1302;24191;-29
2022/01/18 05:48:45;;;;;;;7.90;1.50;;;;;;;-2.13;93.42;100717.30;103600;1301;22510;-25
2022/01/18 05:51:12;;;;;;;16.20;2.20;;;;;;;-1.93;92.50;100713.95;103478;1300;24433;-29
2022/01/18 05:53:39;;;;;;;9.00;1.40;;;;;;;-2.00;92.45;100713.95;103496;1302;24217;-31
2022/01/18 05:56:11;;;;;;;8.40;1.80;;;;;;;-2.06;92.82;100719.89;103604;1300;24305;-30
2022/01/18 05:58:41;;;;;;;15.10;3.50;;;;;;;-1.94;92.49;100714.34;103527;1302;24374;-31
2022/01/18 06:01:07;;;;;;;23.90;3.60;;;;;;;-1.96;92.32;100710.21;103609;1302;25413;-26
2022/01/18 06:03:35;;;;;;;11.70;4.30;;;;;;;-1.75;91.90;100712.40;103486;1302;24338;-25
2022/01/18 06:08:30;;;;;;;11.80;1.20;;;;;;;-1.99;92.42;100707.07;103559;1302;24408;-31
2022/01/18 06:10:56;;;;;;;3.10;1.20;;;;;;;-2.13;92.92;100716.44;103501;1302;22512;-29
2022/01/18 06:13:22;;;;;;;18.30;3.80;;;;;;;-2.10;93.28;100730.11;103530;1301;24315;-31
2022/01/18 06:15:48;;;;;;;5.70;1.50;;;;;;;-2.08;93.10;100726.86;103549;1300;24185;-29
2022/01/18 06:18:16;;;;;;;20.80;2.50;;;;;;;-2.03;92.97;100732.19;103562;1300;24202;-26
2022/01/18 06:20:43;;;;;;;22.20;3.70;;;;;;;-2.11;92.98;100736.52;103537;1302;22514;-25
2022/01/18 06:23:09;;;;;;;19.40;3.00;;;;;;;-2.15;93.52;100740.02;103657;1302;24238;-31
2022/01/18 06:25:35;;;;;;;7.60;1.60;;;;;;;-2.08;93.35;100741.80;103550;1302;24407;-26
2022/01/18 06:28:01;;;;;;;6.30;1.20;;;;;;;-2.23;94.01;100748.90;103551;1302;24216;-31
2022/01/18 06:30:27;;;;;;;5.10;1.20;;;;;;;-2.14;93.81;100763.00;103544;1300;22884;-26
2022/01/18 06:32:53;;;;;;;10.90;2.20;;;;;;;-2.26;94.40;100764.33;103529;1301;24303;-25
2022/01/18 06:35:19;;;;;;;10.90;3.10;;;;;;;-2.09;93.95;100768.13;103503;1302;24189;-29
2022/01/18 06:37:46;;;;;;;20.40;4.80;;;;;;;-1.86;92.90;100775.70;103533;1302;22763;-29
2022/01/18 06:40:12;;;;;;;7.00;4.40;;;;;;;-1.98;92.99;100771.23;103458;1301;22505;-29
2022/01/18 06:42:38;;;;;;;16.40;2.90;;;;;;;-2.01;93.41;100771.40;103595;1302;22638;-25
2022/01/18 06:45:05;;;;;;;6.80;3.20;;;;;;;-2.19;94.21;100781.14;103547;1302;22752;-29
2022/01/18 06:47:32;;;;;;;23.50;5.20;;;;;;;-2.00;93.54;100782.80;103550;1302;22742;-30
2022/01/18 06:49:58;;;;;;;17.10;3.60;;;;;;;-2.01;93.80;100780.00;103557;1302;23006;-26
2022/01/18 06:52:24;;;;;;;13.10;3.10;;;;;;;-1.92;93.51;100768.98;103581;1302;22734;-27
2022/01/18 06:54:50;;;;;;;15.00;2.80;;;;;;;-1.87;93.15;100772.91;103632;1300;24186;-25
2022/01/18 06:57:16;;;;;;;9.70;1.80;;;;;;;-1.97;93.88;100774.88;103459;1300;24262;-26
2022/01/18 06:59:43;;;;;;;34.10;4.60;;;;;;;-1.85;93.29;100775.13;103573;1300;24390;-27
2022/01/18 07:02:09;;;;;;;20.30;4.70;;;;;;;-1.94;93.08;100783.33;103664;1300;22714;-25
2022/01/18 07:04:35;;;;;;;10.20;2.20;;;;;;;-1.84;93.24;100781.34;103497;1301;24697;-25
2022/01/18 07:07:01;;;;;;;6.80;2.10;;;;;;;-1.96;93.37;100788.67;103519;1302;24332;-25
2022/01/18 07:09:27;;;;;;;16.50;4.50;;;;;;;-2.16;94.61;100802.01;103608;1300;24293;-25
2022/01/18 07:11:54;;;;;;;25.90;2.60;;;;;;;-2.13;94.94;100802.42;103521;1301;24315;-25
2022/01/18 07:14:20;;;;;;;6.60;1.20;;;;;;;-2.27;95.48;100803.69;103425;1301;24376;-31
2022/01/18 07:16:46;;;;;;;34.30;3.90;;;;;;;-2.19;95.62;100808.86;103578;1300;24324;-29
2022/01/18 07:19:12;;;;;;;8.50;1.60;;;;;;;-2.15;95.84;100813.38;103486;1300;24295;-30
2022/01/18 07:21:38;;;;;;;11.90;2.30;;;;;;;-2.10;95.71;100815.58;103299;1301;24269;-25
2022/01/18 07:24:14;;;;;;;7.70;3.20;;;;;;;-1.98;95.09;100820.58;103548;1300;24223;-30
2022/01/18 07:26:40;;;;;;;16.20;1.90;;;;;;;-2.06;95.40;100817.66;103550;1300;24324;-24
2022/01/18 07:29:06;;;;;;;16.30;4.10;;;;;;;-2.08;95.65;100811.11;103577;1300;24281;-27
2022/01/18 07:31:32;;;;;;;27.10;3.70;;;;;;;-2.11;95.88;100811.44;103576;1301;22507;-32
2022/01/18 07:33:58;;;;;;;6.30;1.60;;;;;;;-2.16;95.97;100811.88;103480;1302;24465;-29
2022/01/18 07:36:24;;;;;;;14.80;3.70;;;;;;;-2.09;95.95;100822.89;103574;1301;24211;-24
2022/01/18 07:38:51;;;;;;;20.60;2.80;;;;;;;-2.10;96.02;100825.04;103517;1300;24253;-25
2022/01/18 07:41:17;;;;;;;9.40;2.80;;;;;;;-2.00;95.73;100827.67;103559;1302;24259;-30
2022/01/18 07:43:43;;;;;;;6.80;2.30;;;;;;;-2.05;96.02;100829.17;103424;1302;24214;-25
2022/01/18 07:46:09;;;;;;;13.80;3.10;;;;;;;-1.93;95.29;100832.56;103577;1302;24290;-26
2022/01/18 07:48:35;;;;;;;10.10;3.10;;;;;;;-1.96;95.47;100831.14;103513;1302;24324;-25
2022/01/18 07:51:01;;;;;;;12.50;3.10;;;;;;;-2.01;95.71;100837.54;103587;1302;24197;-26
2022/01/18 07:53:27;;;;;;;10.60;2.70;;;;;;;-2.03;96.06;100847.16;103388;1302;24234;-30
2022/01/18 07:55:53;;;;;;;10.60;2.70;;;;;;;-1.95;96.01;100845.86;103548;1302;24294;-26
2022/01/18 07:58:19;;;;;;;9.50;2.90;;;;;;;-1.99;96.05;100849.91;103831;1301;24226;-26
2022/01/18 08:00:45;;;;;;;12.50;3.20;;;;;;;-1.95;96.19;100853.75;103665;1300;24235;-31
2022/01/18 08:03:11;;;;;;;24.40;6.00;;;;;;;-1.85;96.14;100860.27;103907;1300;22597;-31
2022/01/18 08:05:38;;;;;;;11.40;2.40;;;;;;;-1.82;95.69;100869.06;103808;1302;24257;-33
2022/01/18 08:08:05;;;;;;;18.20;3.10;;;;;;;-1.73;95.61;100872.42;103541;1301;24189;-27
2022/01/18 08:10:31;;;;;;;18.40;6.00;;;;;;;-1.79;95.64;100868.55;103889;1300;24212;-27
2022/01/18 08:13:00;;;;;;;6.60;2.60;;;;;;;-1.63;95.51;100876.63;103955;1302;24228;-26
2022/01/18 08:15:27;;;;;;;15.40;3.90;;;;;;;-1.71;95.49;100891.11;103983;1302;24331;-27
2022/01/18 08:17:54;;;;;;;11.80;3.40;;;;;;;-1.52;95.26;100894.51;103802;1302;24264;-32
2022/01/18 08:20:21;;;;;;;14.90;2.20;;;;;;;-1.66;95.18;100907.38;103770;1300;22993;-26
2022/01/18 08:22:46;;;;;;;24.20;2.90;;;;;;;-1.51;95.34;100915.85;103637;1302;24384;-31
2022/01/18 08:25:14;;;;;;;10.20;3.20;;;;;;;-1.45;94.54;100909.90;103783;1300;24349;-26
2022/01/18 08:27:40;;;;;;;20.90;3.90;;;;;;;-1.41;94.25;100921.32;103666;1301;24149;-26
2022/01/18 08:30:08;;;;;;;10.10;2.10;;;;;;;-1.50;95.13;100922.48;103575;1300;24176;-31
2022/01/18 08:32:34;;;;;;;14.40;2.50;;;;;;;-1.43;95.32;100922.27;103741;1302;24405;-31
2022/01/18 08:35:00;;;;;;;15.40;3.40;;;;;;;-1.35;94.72;100929.61;103717;1303;24191;-32
2022/01/18 08:37:26;;;;;;;18.80;3.90;;;;;;;-1.30;94.93;100935.30;103637;1302;24274;-29
2022/01/18 08:39:52;;;;;;;12.30;3.80;;;;;;;-1.24;94.22;100937.58;103551;1300;24309;-26
2022/01/18 08:42:18;;;;;;;25.90;3.30;;;;;;;-1.22;94.47;100941.73;103551;1301;24324;-26
2022/01/18 08:44:43;;;;;;;20.60;3.40;;;;;;;-1.26;94.48;100945.06;103474;1302;22518;-30
2022/01/18 08:47:11;;;;;;;9.50;2.00;;;;;;;-1.20;94.49;100950.35;103545;1300;24316;-30
2022/01/18 08:49:37;;;;;;;11.50;3.00;;;;;;;-1.17;94.81;100953.91;103550;1300;24211;-25
2022/01/18 08:52:04;;;;;;;7.40;2.60;;;;;;;-1.00;93.68;100951.58;103618;1300;26182;-30
2022/01/18 08:54:30;;;;;;;14.00;3.30;;;;;;;-0.99;93.22;100950.99;103640;1300;24212;-26
2022/01/18 08:56:56;;;;;;;11.80;2.80;;;;;;;-1.10;93.00;100955.29;103568;1302;24229;-30
2022/01/18 08:59:22;;;;;;;10.50;2.40;;;;;;;-0.97;92.75;100963.71;103596;1300;24168;-25
2022/01/18 09:01:49;;;;;;;17.80;3.70;;;;;;;-0.98;92.71;100963.23;103520;1302;24181;-30
2022/01/18 09:04:16;;;;;;;16.40;3.30;;;;;;;-0.86;92.39;100968.23;103640;1301;24331;-25
2022/01/18 09:06:41;;;;;;;11.30;4.30;;;;;;;-0.93;92.25;100974.20;103553;1302;24396;-25
2022/01/18 09:09:09;;;;;;;27.50;8.20;;;;;;;-0.88;92.03;100978.35;103491;1302;24216;-29
2022/01/18 09:11:36;;;;;;;10.70;3.20;;;;;;;-0.82;92.07;100982.59;103613;1300;25357;-26
2022/01/18 09:14:02;;;;;;;6.30;2.30;;;;;;;-0.81;92.13;100989.58;103503;1301;24339;-30
2022/01/18 09:16:28;;;;;;;8.40;2.60;;;;;;;-0.83;91.97;100991.94;103597;1302;24319;-27
2022/01/18 09:18:53;;;;;;;14.80;3.80;;;;;;;-0.74;91.33;100996.39;103521;1300;24270;-31
2022/01/18 09:21:19;;;;;;;23.20;3.00;;;;;;;-0.74;91.15;101006.23;103507;1300;24176;-25
2022/01/18 09:23:45;;;;;;;14.10;4.10;;;;;;;-0.85;91.40;101014.80;103509;1302;24422;-32
2022/01/18 09:26:13;;;;;;;23.10;5.20;;;;;;;-0.73;91.48;101016.21;103504;1302;24252;-25
2022/01/18 09:28:39;;;;;;;21.50;3.10;;;;;;;-0.75;90.84;101023.50;103756;1302;24295;-30
2022/01/18 09:31:05;;;;;;;11.60;1.50;;;;;;;-0.73;91.66;101032.37;103666;1301;22641;-30
2022/01/18 09:33:31;;;;;;;13.20;3.90;;;;;;;-0.66;91.87;101038.36;103526;1300;24226;-30
2022/01/18 09:35:57;;;;;;;8.20;2.80;;;;;;;-0.68;91.51;101044.05;103479;1302;24276;-27
2022/01/18 09:38:23;;;;;;;8.60;2.50;;;;;;;-0.56;90.95;101049.72;103584;1302;24339;-31
2022/01/18 09:40:49;;;;;;;9.40;3.20;;;;;;;-0.60;90.27;101051.55;103563;1300;24377;-25
2022/01/18 09:43:16;;;;;;;96.60;12.90;;;;;;;-0.61;90.26;101051.24;103440;1301;24181;-25
2022/01/18 09:45:43;;;;;;;12.90;2.20;;;;;;;-0.69;90.83;101047.31;103569;1300;22522;-25
2022/01/18 09:48:09;;;;;;;10.40;2.30;;;;;;;-0.70;90.97;101047.73;103494;1300;24335;-29
2022/01/18 09:50:38;;;;;;;5.70;2.60;;;;;;;-0.53;90.39;101050.63;103550;1301;24186;-26
2022/01/18 09:53:06;;;;;;;11.70;2.00;;;;;;;-0.54;90.20;101055.63;103547;1300;24213;-30
2022/01/18 09:55:32;;;;;;;12.50;2.70;;;;;;;-0.60;90.38;101061.20;103554;1300;24213;-26
2022/01/18 09:57:59;;;;;;;13.40;3.40;;;;;;;-0.46;89.57;101069.27;103482;1302;24218;-26
2022/01/18 10:00:26;;;;;;;15.70;6.70;;;;;;;-0.47;89.75;101074.25;103561;1300;24328;-31
2022/01/18 10:02:52;;;;;;;30.50;10.40;;;;;;;-0.37;88.95;101076.15;103532;1302;22526;-25
2022/01/18 10:05:23;;;;;;;38.90;6.30;;;;;;;-0.40;88.82;101078.40;103589;1300;24142;-25
2022/01/18 10:07:54;;;;;;;19.00;4.10;;;;;;;-0.52;89.77;101083.64;103552;1302;24073;-27
2022/01/18 10:10:21;;;;;;;21.20;4.80;;;;;;;-0.45;89.97;101084.84;103558;1300;22570;-30
2022/01/18 10:12:55;;;;;;;40.10;8.20;;;;;;;-0.49;89.34;101083.48;103481;1300;24263;-25
2022/01/18 10:15:21;;;;;;;32.10;10.70;;;;;;;-0.28;88.93;101082.52;103587;1300;24148;-25
2022/01/18 10:17:47;;;;;;;30.00;5.40;;;;;;;-0.05;87.46;101079.63;103511;1300;22782;-27
2022/01/18 10:20:18;;;;;;;18.30;4.00;;;;;;;-0.45;88.84;101085.02;103580;1300;24222;-25
2022/01/18 10:22:48;;;;;;;14.50;4.40;;;;;;;-0.49;89.38;101084.00;103518;1301;24361;-30
2022/01/18 10:25:18;;;;;;;26.70;9.90;;;;;;;-0.47;89.73;101080.92;103492;1300;22593;-25
2022/01/18 10:27:47;;;;;;;19.20;4.60;;;;;;;0.18;86.29;101076.55;103470;1301;22740;-25
2022/01/18 10:30:20;;;;;;;18.60;3.80;;;;;;;-0.14;87.14;101074.30;103545;1300;23838;-25
2022/01/18 10:32:53;;;;;;;27.20;3.40;;;;;;;-0.26;87.83;101084.18;103649;1300;23978;-30
2022/01/18 10:35:18;;;;;;;10.00;2.10;;;;;;;-0.55;88.41;101089.45;103600;1302;26144;-25
2022/01/18 10:37:45;;;;;;;9.00;3.60;;;;;;;-0.58;88.93;101085.55;103591;1300;24319;-30
2022/01/18 10:40:15;;;;;;;14.40;4.20;;;;;;;-0.60;89.71;101082.35;103517;1300;24174;-32
2022/01/18 10:42:42;;;;;;;7.40;2.10;;;;;;;-0.40;88.89;101083.88;103559;1301;24265;-30
2022/01/18 10:45:13;;;;;;;8.80;2.50;;;;;;;-0.25;88.62;101084.27;103439;1300;22997;-29
2022/01/18 10:47:48;;;;;;;18.10;3.00;;;;;;;-0.33;88.55;101084.21;103543;1302;25253;-29
2022/01/18 10:50:15;;;;;;;9.40;3.60;;;;;;;-0.40;89.17;101088.06;103577;1300;24286;-25
2022/01/18 10:52:44;;;;;;;17.90;3.70;;;;;;;-0.29;89.15;101086.63;103600;1301;24226;-30
2022/01/18 10:55:15;;;;;;;9.70;6.50;;;;;;;-0.28;89.24;101084.80;103518;1302;23928;-30
2022/01/18 10:57:41;;;;;;;15.10;4.20;;;;;;;-0.06;88.17;101085.27;103584;1300;24317;-25
2022/01/18 11:00:11;;;;;;;14.80;3.10;;;;;;;-0.15;88.47;101087.55;103577;1300;23996;-31
2022/01/18 11:02:39;;;;;;;6.50;2.10;;;;;;;-0.17;87.94;101092.09;103550;1301;25351;-29
2022/01/18 11:05:11;;;;;;;17.50;3.90;;;;;;;-0.19;87.96;101089.41;103501;1300;24222;-27
2022/01/18 11:07:38;;;;;;;3.20;1.60;;;;;;;-0.11;87.40;101092.45;103464;1300;24313;-27
2022/01/18 11:10:05;;;;;;;15.00;3.50;;;;;;;-0.33;87.95;101096.33;103567;1300;24461;-31
2022/01/18 11:12:43;;;;;;;10.80;3.40;;;;;;;-0.11;87.15;101097.75;103617;1301;23988;-28
2022/01/18 11:15:16;;;;;;;13.80;3.30;;;;;;;-0.10;87.00;101098.95;103642;1300;22761;-29
2022/01/18 11:17:49;;;;;;;5.40;1.60;;;;;;;-0.29;86.75;101095.23;103522;1300;24185;-27
2022/01/18 11:20:15;;;;;;;24.60;4.10;;;;;;;-0.33;87.81;101092.98;103529;1300;24320;-29
2022/01/18 11:22:41;;;;;;;14.90;3.30;;;;;;;-0.26;87.64;101092.73;103682;1300;24332;-27
2022/01/18 11:25:07;;;;;;;9.00;3.80;;;;;;;-0.17;87.07;101090.14;103615;1301;24385;-25
2022/01/18 11:27:35;;;;;;;29.10;5.60;;;;;;;0.14;86.78;101091.40;103542;1302;24271;-26
2022/01/18 11:30:02;;;;;;;5.30;1.20;;;;;;;0.13;85.43;101087.39;103557;1302;24285;-29
2022/01/18 11:32:28;;;;;;;9.30;2.30;;;;;;;-0.13;86.51;101082.68;103567;1300;24407;-30
2022/01/18 11:35:00;;;;;;;18.00;5.90;;;;;;;0.49;84.13;101079.13;103516;1302;24236;-25
2022/01/18 11:37:33;;;;;;;20.50;3.20;;;;;;;0.18;84.46;101081.09;103572;1300;23891;-30
2022/01/18 11:39:59;;;;;;;10.70;2.80;;;;;;;0.00;85.93;101086.00;103547;1302;22966;-30
2022/01/18 11:42:37;;;;;;;10.10;4.10;;;;;;;0.15;84.93;101087.47;103529;1300;24217;-30
2022/01/18 11:45:24;;;;;;;11.80;5.20;;;;;;;0.38;84.33;101087.17;103535;1302;24292;-25
2022/01/18 11:47:57;;;;;;;25.30;3.60;;;;;;;0.12;84.95;101085.84;103493;1302;24337;-27
2022/01/18 11:50:27;;;;;;;12.60;4.00;;;;;;;-0.03;86.14;101093.41;103569;1300;25468;-27
2022/01/18 11:53:02;;;;;;;11.50;3.20;;;;;;;-0.12;86.78;101095.54;103536;1300;24213;-25
2022/01/18 11:55:34;;;;;;;16.90;3.50;;;;;;;-0.03;87.37;101099.91;103612;1300;24248;-29
2022/01/18 11:58:07;;;;;;;10.20;3.20;;;;;;;-0.09;87.07;101100.77;103623;1300;23100;-30
2022/01/18 12:00:33;;;;;;;27.40;3.90;;;;;;;-0.10;87.38;101106.46;103544;1300;22850;-30
2022/01/18 12:03:16;;;;;;;9.00;3.60;;;;;;;0.04;87.06;101106.41;103442;1300;24253;-26
2022/01/18 12:05:42;;;;;;;12.80;2.70;;;;;;;0.00;86.20;101099.59;103648;1300;24238;-29
2022/01/18 12:08:08;;;;;;;10.30;3.30;;;;;;;-0.06;86.85;101101.85;103663;1300;24290;-29
2022/01/18 12:10:43;;;;;;;15.80;4.00;;;;;;;-0.03;87.14;101102.60;103017;1300;759887;-30